Time;durP1;ratioP1;P1;durP2;ratioP2;P2;SDS_P1;SDS_P2;PMS_P1;PMS_P2;Temp;Humidity;BMP_temperature;BMP_pressure;BME280_temperature;BME280_humidity;BME280_pressure;Samples;Min_cycle;Max_cycle;Signal;HPM_P1;HPM_P2
2022/05/20 00:01:33;;;;;;;3.85;2.17;;;;;;;;;;4957500;28;20039;-67
2022/05/20 00:03:59;;;;;;;5.03;2.42;;;;;;;;;;4957712;28;20151;-67
2022/05/20 00:06:24;;;;;;;4.65;2.50;;;;;;;;;;4950204;28;20548;-67
2022/05/20 00:08:50;;;;;;;4.78;2.30;;;;;;;;;;4959469;28;20039;-67
2022/05/20 00:11:15;;;;;;;3.83;2.20;;;;;;;;;;4952513;28;20043;-67
2022/05/20 00:13:41;;;;;;;10.15;2.58;;;;;;;;;;4946480;28;20043;-66
2022/05/20 00:16:06;;;;;;;5.05;2.20;;;;;;;;;;4947628;28;20039;-67
2022/05/20 00:18:31;;;;;;;6.63;2.47;;;;;;;;;;4950011;28;20086;-67
2022/05/20 00:20:59;;;;;;;4.95;2.20;;;;;;;;;;4944505;28;20130;-67
2022/05/20 00:23:25;;;;;;;3.95;2.40;;;;;;;;;;4944105;28;20069;-67
2022/05/20 00:25:51;;;;;;;6.72;2.60;;;;;;;;;;4945852;28;20162;-67
2022/05/20 00:28:25;;;;;;;5.10;2.10;;;;;;;;;;4943354;28;20119;-67
2022/05/20 00:31:10;;;;;;;3.00;2.45;;;;;;;;;;4948087;28;20038;-67
2022/05/20 00:33:37;;;;;;;5.68;2.50;;;;;;;;;;4958747;28;20052;-67
2022/05/20 00:36:03;;;;;;;4.45;2.30;;;;;;;;;;4962361;28;20095;-67
2022/05/20 00:38:28;;;;;;;6.68;2.55;;;;;;;;;;4959862;28;20042;-67
2022/05/20 00:40:55;;;;;;;5.70;2.40;;;;;;;;;;4962470;28;20051;-67
2022/05/20 00:43:29;;;;;;;4.47;2.33;;;;;;;;;;4962571;28;20176;-67
2022/05/20 00:46:01;;;;;;;5.78;2.47;;;;;;;;;;4957815;28;20035;-67
2022/05/20 00:48:28;;;;;;;;;;;;;;;;;;4960874;28;20127;-67
2022/05/20 00:51:16;;;;;;;6.93;2.20;;;;;;;;;;4962226;28;19976;-67
2022/05/20 00:53:49;;;;;;;3.13;2.40;;;;;;;;;;4955164;28;20038;-67
2022/05/20 00:56:19;;;;;;;7.35;2.53;;;;;;;;;;4954275;28;20039;-67
2022/05/20 00:58:45;;;;;;;6.90;2.50;;;;;;;;;;4943685;28;20449;-67
2022/05/20 01:01:11;;;;;;;13.20;3.22;;;;;;;;;;4958362;28;20042;-67
2022/05/20 01:03:38;;;;;;;5.10;2.83;;;;;;;;;;4946340;28;20043;-67
2022/05/20 01:06:03;;;;;;;6.00;2.35;;;;;;;;;;4947522;28;20038;-67
2022/05/20 01:08:31;;;;;;;6.53;2.55;;;;;;;;;;4943703;28;20050;-67
2022/05/20 01:10:57;;;;;;;5.72;2.67;;;;;;;;;;4946252;28;20050;-67
2022/05/20 01:13:27;;;;;;;3.58;2.60;;;;;;;;;;4943649;28;20066;-67
2022/05/20 01:15:54;;;;;;;5.13;2.45;;;;;;;;;;4946988;28;20089;-67
2022/05/20 01:18:19;;;;;;;4.55;2.50;;;;;;;;;;4939962;28;20031;-67
2022/05/20 01:20:51;;;;;;;6.85;1.92;;;;;;;;;;4942247;28;20050;-67
2022/05/20 01:23:19;;;;;;;2.83;2.33;;;;;;;;;;4943196;28;20045;-67
2022/05/20 01:25:51;;;;;;;3.47;2.22;;;;;;;;;;4950050;28;20142;-67
2022/05/20 01:28:19;;;;;;;2.78;2.40;;;;;;;;;;4942754;28;20047;-67
2022/05/20 01:30:59;;;;;;;2.65;2.45;;;;;;;;;;4947060;28;20035;-67
2022/05/20 01:33:30;;;;;;;3.65;2.45;;;;;;;;;;4950246;28;20453;-67
2022/05/20 01:35:56;;;;;;;12.15;2.40;;;;;;;;;;4942740;28;20033;-67
2022/05/20 01:38:21;;;;;;;2.88;2.60;;;;;;;;;;4942863;28;20039;-67
2022/05/20 01:41:01;;;;;;;4.90;2.40;;;;;;;;;;4944559;28;20047;-67
2022/05/20 01:43:27;;;;;;;9.50;2.20;;;;;;;;;;4945528;28;20419;-67
2022/05/20 01:46:14;;;;;;;3.83;2.60;;;;;;;;;;4946669;28;20042;-67
2022/05/20 01:49:15;;;;;;;3.22;2.45;;;;;;;;;;4947260;28;20840;-68
2022/05/20 01:51:50;;;;;;;3.30;2.33;;;;;;;;;;4931408;28;20513;-67
2022/05/20 01:54:25;;;;;;;7.53;2.38;;;;;;;;;;4945485;28;20031;-67
2022/05/20 01:56:56;;;;;;;2.78;2.30;;;;;;;;;;4944461;28;20102;-67
2022/05/20 01:59:30;;;;;;;4.63;2.40;;;;;;;;;;4926919;28;20058;-67
2022/05/20 02:02:06;;;;;;;5.47;2.45;;;;;;;;;;4956962;28;20063;-67
2022/05/20 02:04:54;;;;;;;2.40;2.15;;;;;;;;;;4959807;28;20122;-67
2022/05/20 02:07:26;;;;;;;2.55;2.33;;;;;;;;;;4950114;28;20035;-67
2022/05/20 02:10:05;;;;;;;3.63;2.17;;;;;;;;;;4960408;28;20373;-67
2022/05/20 02:12:36;;;;;;;4.30;2.22;;;;;;;;;;4942462;28;20043;-67
2022/05/20 02:15:21;;;;;;;3.20;1.90;;;;;;;;;;4951821;28;20074;-67
2022/05/20 02:17:51;;;;;;;2.72;2.42;;;;;;;;;;4958840;28;20051;-67
2022/05/20 02:20:24;;;;;;;3.67;2.22;;;;;;;;;;4961499;28;20034;-68
2022/05/20 02:22:56;;;;;;;8.80;2.28;;;;;;;;;;4946619;28;20050;-67
2022/05/20 02:25:24;;;;;;;;;;;;;;;;;;4946459;28;20488;-67
2022/05/20 02:27:54;;;;;;;2.55;2.05;;;;;;;;;;4947467;28;20578;-67
2022/05/20 02:30:25;;;;;;;3.15;2.22;;;;;;;;;;4948044;28;20047;-67
2022/05/20 02:33:14;;;;;;;2.78;2.45;;;;;;;;;;4946094;28;20467;-67
2022/05/20 02:35:40;;;;;;;4.43;2.13;;;;;;;;;;4945999;28;20094;-67
2022/05/20 02:38:15;;;;;;;4.50;2.45;;;;;;;;;;4951707;28;20138;-67
2022/05/20 02:40:44;;;;;;;2.85;2.20;;;;;;;;;;4956078;28;20046;-67
2022/05/20 02:43:09;;;;;;;5.30;2.47;;;;;;;;;;4945999;28;20031;-67
2022/05/20 02:45:37;;;;;;;3.20;2.20;;;;;;;;;;4949199;28;20049;-67
2022/05/20 02:48:02;;;;;;;2.83;2.40;;;;;;;;;;4948048;28;20047;-67
2022/05/20 02:50:28;;;;;;;3.53;2.60;;;;;;;;;;4957516;28;20043;-67
2022/05/20 02:52:53;;;;;;;2.90;2.25;;;;;;;;;;4946578;28;20063;-67
2022/05/20 02:55:19;;;;;;;3.78;2.35;;;;;;;;;;4945591;28;20460;-67
2022/05/20 02:57:45;;;;;;;3.17;2.10;;;;;;;;;;4945940;28;20122;-67
2022/05/20 03:05:41;;;;;;;2.20;2.00;;;;;;;;;;4945446;28;20464;-67
2022/05/20 03:08:06;;;;;;;3.05;2.00;;;;;;;;;;4952433;28;20111;-68
2022/05/20 03:10:32;;;;;;;3.10;2.38;;;;;;;;;;4947698;28;20239;-69
2022/05/20 03:13:02;;;;;;;5.13;2.20;;;;;;;;;;4956710;28;20492;-67
2022/05/20 03:15:28;;;;;;;3.20;2.50;;;;;;;;;;4950044;28;20046;-67
2022/05/20 03:17:54;;;;;;;4.72;2.35;;;;;;;;;;4943664;28;20035;-66
2022/05/20 03:20:20;;;;;;;3.97;2.50;;;;;;;;;;4951049;28;20671;-67
2022/05/20 03:22:46;;;;;;;4.43;2.60;;;;;;;;;;4958992;28;20149;-67
2022/05/20 03:25:12;;;;;;;3.78;2.10;;;;;;;;;;4958170;28;20948;-67
2022/05/20 03:27:37;;;;;;;4.00;2.70;;;;;;;;;;4942691;28;20578;-67
2022/05/20 03:30:08;;;;;;;3.17;2.35;;;;;;;;;;4952485;28;20031;-67
2022/05/20 03:32:33;;;;;;;3.47;2.30;;;;;;;;;;4946768;28;20047;-70
2022/05/20 03:34:59;;;;;;;2.60;2.40;;;;;;;;;;4962949;28;20038;-67
2022/05/20 03:37:25;;;;;;;3.22;2.67;;;;;;;;;;4949937;28;20385;-67
2022/05/20 03:39:51;;;;;;;2.70;2.50;;;;;;;;;;4952192;28;20035;-67
2022/05/20 03:42:16;;;;;;;3.35;2.13;;;;;;;;;;4944971;28;20611;-67
2022/05/20 03:44:42;;;;;;;4.80;2.53;;;;;;;;;;4955102;28;20065;-67
2022/05/20 03:47:07;;;;;;;6.75;2.50;;;;;;;;;;4947696;28;20390;-67
2022/05/20 03:49:33;;;;;;;14.50;2.67;;;;;;;;;;4951122;28;20093;-67
2022/05/20 03:51:58;;;;;;;3.03;2.30;;;;;;;;;;4947038;28;20090;-67
2022/05/20 03:54:26;;;;;;;4.10;2.40;;;;;;;;;;4945514;28;20043;-66
2022/05/20 03:56:52;;;;;;;2.58;1.98;;;;;;;;;;4955201;28;20109;-67
2022/05/20 03:59:17;;;;;;;3.83;2.10;;;;;;;;;;4949784;28;20556;-67
2022/05/20 04:01:59;;;;;;;3.05;2.42;;;;;;;;;;4956888;28;20046;-66
2022/05/20 04:04:33;;;;;;;4.63;2.33;;;;;;;;;;4948122;28;20039;-68
2022/05/20 04:07:08;;;;;;;2.67;2.25;;;;;;;;;;4948964;28;20451;-67
2022/05/20 04:09:33;;;;;;;4.07;2.72;;;;;;;;;;4947241;28;20512;-67
2022/05/20 04:12:03;;;;;;;3.05;2.45;;;;;;;;;;4933488;28;20085;-67
2022/05/20 04:14:30;;;;;;;2.28;2.08;;;;;;;;;;4948006;28;20178;-67
2022/05/20 04:16:57;;;;;;;3.92;2.25;;;;;;;;;;4950982;28;20046;-67
2022/05/20 04:19:27;;;;;;;2.53;2.05;;;;;;;;;;4950043;28;20181;-67
2022/05/20 04:21:56;;;;;;;4.15;2.58;;;;;;;;;;4952830;28;20738;-68
2022/05/20 04:24:22;;;;;;;7.22;2.50;;;;;;;;;;4959424;28;20031;-67
2022/05/20 04:26:47;;;;;;;5.30;2.60;;;;;;;;;;4945625;28;20038;-68
2022/05/20 04:29:13;;;;;;;5.65;2.55;;;;;;;;;;4943122;28;20034;-67
2022/05/20 04:31:48;;;;;;;2.50;2.30;;;;;;;;;;4947923;28;20622;-68
2022/05/20 04:34:14;;;;;;;4.10;2.60;;;;;;;;;;4949269;28;20042;-68
2022/05/20 04:36:40;;;;;;;2.50;2.30;;;;;;;;;;4931795;28;20042;-67
2022/05/20 04:39:05;;;;;;;4.43;3.20;;;;;;;;;;4950684;28;20619;-67
2022/05/20 04:47:01;;;;;;;3.15;2.53;;;;;;;;;;4951714;28;20031;-67
2022/05/20 04:49:29;;;;;;;6.63;2.47;;;;;;;;;;4943569;28;20035;-67
2022/05/20 04:51:55;;;;;;;4.97;2.50;;;;;;;;;;4959506;28;20055;-67
2022/05/20 04:57:06;;;;;;;2.97;2.40;;;;;;;;;;4946047;28;20377;-70
2022/05/20 04:59:38;;;;;;;4.80;2.53;;;;;;;;;;4948525;28;20047;-70
2022/05/20 05:02:05;;;;;;;5.93;2.17;;;;;;;;;;4955100;28;20698;-69
2022/05/20 05:04:31;;;;;;;2.45;2.10;;;;;;;;;;4954012;28;20050;-69
2022/05/20 05:06:57;;;;;;;2.90;2.20;;;;;;;;;;4952679;28;20042;-68
2022/05/20 05:09:23;;;;;;;2.70;2.20;;;;;;;;;;4941861;28;20043;-69
2022/05/20 05:11:49;;;;;;;4.85;1.95;;;;;;;;;;4945091;28;20653;-69
2022/05/20 05:14:15;;;;;;;3.70;2.33;;;;;;;;;;4941481;28;21077;-69
2022/05/20 05:16:41;;;;;;;3.78;2.28;;;;;;;;;;4943252;28;20110;-69
2022/05/20 05:19:07;;;;;;;5.88;2.53;;;;;;;;;;4942626;28;20031;-69
2022/05/20 05:21:32;;;;;;;5.22;2.55;;;;;;;;;;4942213;28;20041;-69
2022/05/20 05:24:00;;;;;;;3.72;2.58;;;;;;;;;;4944156;28;20054;-69
2022/05/20 05:26:27;;;;;;;3.88;2.65;;;;;;;;;;4942661;28;20039;-69
2022/05/20 05:28:53;;;;;;;3.83;2.60;;;;;;;;;;4942172;28;20071;-69
2022/05/20 05:31:19;;;;;;;2.75;2.53;;;;;;;;;;4945898;28;20090;-69
2022/05/20 05:33:44;;;;;;;3.97;2.42;;;;;;;;;;4944949;28;20082;-69
2022/05/20 05:36:11;;;;;;;4.03;2.30;;;;;;;;;;4941701;28;20397;-69
2022/05/20 05:38:36;;;;;;;1.75;1.65;;;;;;;;;;4942338;28;20497;-69
2022/05/20 05:41:02;;;;;;;5.45;2.08;;;;;;;;;;4942060;28;20050;-69
2022/05/20 05:43:27;;;;;;;3.67;1.80;;;;;;;;;;4942778;28;20050;-68
2022/05/20 05:45:53;;;;;;;2.47;1.60;;;;;;;;;;4948568;28;20038;-69
2022/05/20 05:48:18;;;;;;;5.95;2.35;;;;;;;;;;4944327;28;20392;-69
2022/05/20 05:50:44;;;;;;;3.35;1.85;;;;;;;;;;4942721;28;20046;-69
2022/05/20 05:53:16;;;;;;;1.73;1.63;;;;;;;;;;4948868;28;20041;-69
2022/05/20 05:55:43;;;;;;;4.00;1.92;;;;;;;;;;4941640;28;20061;-69
2022/05/20 05:58:09;;;;;;;3.78;2.35;;;;;;;;;;4945730;28;20109;-69
2022/05/20 06:00:35;;;;;;;1.60;1.50;;;;;;;;;;4948358;28;20432;-69
2022/05/20 06:03:01;;;;;;;4.18;1.70;;;;;;;;;;4943915;28;20031;-68
2022/05/20 06:05:26;;;;;;;2.40;2.17;;;;;;;;;;4944735;28;20031;-69
2022/05/20 06:07:52;;;;;;;1.58;1.48;;;;;;;;;;4943718;28;20468;-68
2022/05/20 06:10:18;;;;;;;4.05;1.80;;;;;;;;;;4944843;28;20027;-69
2022/05/20 06:12:44;;;;;;;5.13;1.73;;;;;;;;;;4944395;28;20038;-68
2022/05/20 06:15:13;;;;;;;1.73;1.63;;;;;;;;;;4946416;28;20042;-68
2022/05/20 06:17:39;;;;;;;1.85;1.67;;;;;;;;;;4949402;28;20055;-68
2022/05/20 06:20:05;;;;;;;1.42;1.33;;;;;;;;;;4956669;28;20038;-69
2022/05/20 06:22:31;;;;;;;2.42;1.58;;;;;;;;;;4949461;28;20078;-71
2022/05/20 06:24:56;;;;;;;4.15;1.90;;;;;;;;;;4928632;29;20035;-70
2022/05/20 06:27:22;;;;;;;1.95;1.80;;;;;;;;;;4952973;28;20403;-70
2022/05/20 06:29:48;;;;;;;3.28;1.83;;;;;;;;;;4948047;28;20047;-69
2022/05/20 06:32:14;;;;;;;2.67;1.63;;;;;;;;;;4950487;28;20038;-68
2022/05/20 06:40:13;;;;;;;2.78;1.45;;;;;;;;;;4948429;28;20031;-69
2022/05/20 06:42:38;;;;;;;2.05;1.80;;;;;;;;;;4928860;28;20477;-69
2022/05/20 06:45:04;;;;;;;3.35;1.80;;;;;;;;;;4945349;28;20040;-69
2022/05/20 06:47:30;;;;;;;2.60;1.52;;;;;;;;;;4955715;28;20046;-68
2022/05/20 06:49:56;;;;;;;4.72;1.65;;;;;;;;;;4947707;28;20130;-69
2022/05/20 06:52:21;;;;;;;3.88;1.73;;;;;;;;;;4950826;28;20448;-69
2022/05/20 06:54:47;;;;;;;3.88;1.80;;;;;;;;;;4946676;28;20075;-69
2022/05/20 06:57:20;;;;;;;6.03;1.90;;;;;;;;;;4944940;28;20053;-69
2022/05/20 06:59:45;;;;;;;1.77;1.65;;;;;;;;;;4945061;28;20039;-69
2022/05/20 07:02:11;;;;;;;2.00;1.70;;;;;;;;;;4953928;28;20031;-69
2022/05/20 07:04:36;;;;;;;4.20;1.50;;;;;;;;;;4952848;28;20165;-69
2022/05/20 07:07:04;;;;;;;2.55;1.90;;;;;;;;;;4944087;28;20030;-69
2022/05/20 07:09:29;;;;;;;2.28;1.65;;;;;;;;;;4946681;28;20129;-69
2022/05/20 07:11:55;;;;;;;2.47;1.70;;;;;;;;;;4949407;28;20154;-69
2022/05/20 07:14:21;;;;;;;6.28;1.80;;;;;;;;;;4944537;28;20524;-69
2022/05/20 07:16:47;;;;;;;2.13;1.75;;;;;;;;;;4948638;28;20035;-69
2022/05/20 07:19:13;;;;;;;3.13;1.60;;;;;;;;;;4944263;28;20260;-69
2022/05/20 07:21:38;;;;;;;3.60;1.60;;;;;;;;;;4945056;28;20043;-69
2022/05/20 07:24:04;;;;;;;2.03;1.73;;;;;;;;;;4943842;28;20110;-68
2022/05/20 07:26:30;;;;;;;7.40;1.73;;;;;;;;;;4944669;28;20035;-68
2022/05/20 07:28:56;;;;;;;3.15;1.70;;;;;;;;;;4950469;28;20039;-69
2022/05/20 07:31:23;;;;;;;3.17;1.80;;;;;;;;;;4946143;28;20093;-68
2022/05/20 07:33:53;;;;;;;5.07;1.40;;;;;;;;;;4945533;28;20077;-69
2022/05/20 07:36:19;;;;;;;4.75;1.55;;;;;;;;;;4945206;28;20039;-69
2022/05/20 07:38:44;;;;;;;2.08;1.80;;;;;;;;;;4943506;28;20083;-69
2022/05/20 07:41:11;;;;;;;1.77;1.67;;;;;;;;;;4944981;28;20098;-68
2022/05/20 07:43:36;;;;;;;8.30;1.63;;;;;;;;;;4949285;28;20411;-69
2022/05/20 07:46:03;;;;;;;1.77;1.60;;;;;;;;;;4948175;28;20110;-69
2022/05/20 07:48:28;;;;;;;3.85;1.73;;;;;;;;;;4944550;28;20098;-68
2022/05/20 07:50:59;;;;;;;3.17;1.75;;;;;;;;;;4943790;28;20035;-69
2022/05/20 07:53:33;;;;;;;6.37;1.60;;;;;;;;;;4955055;28;20396;-69
2022/05/20 07:56:05;;;;;;;2.42;1.80;;;;;;;;;;4946459;28;20358;-69
2022/05/20 07:58:36;;;;;;;4.45;1.77;;;;;;;;;;4950563;28;20043;-69
2022/05/20 08:01:03;;;;;;;3.03;1.67;;;;;;;;;;4954477;28;20066;-71
2022/05/20 08:06:17;;;;;;;3.72;1.85;;;;;;;;;;4948849;28;20041;-69
2022/05/20 08:08:42;;;;;;;6.90;1.80;;;;;;;;;;4945440;28;20043;-71
2022/05/20 08:11:08;;;;;;;3.90;1.83;;;;;;;;;;4955176;28;20031;-71
2022/05/20 08:13:34;;;;;;;8.82;1.95;;;;;;;;;;4947222;28;20035;-70
2022/05/20 08:15:59;;;;;;;4.15;1.60;;;;;;;;;;4953055;28;20031;-70
2022/05/20 08:18:24;;;;;;;2.10;1.90;;;;;;;;;;4944939;28;20046;-71
2022/05/20 08:20:50;;;;;;;5.15;1.80;;;;;;;;;;4932161;28;20101;-70
2022/05/20 08:23:16;;;;;;;2.33;1.80;;;;;;;;;;4955363;28;20031;-71
2022/05/20 08:25:41;;;;;;;1.73;1.63;;;;;;;;;;4952754;28;20046;-71
2022/05/20 08:28:07;;;;;;;2.67;1.90;;;;;;;;;;4948532;28;20542;-71
2022/05/20 08:30:33;;;;;;;2.90;1.70;;;;;;;;;;4951517;28;20804;-70
2022/05/20 08:32:58;;;;;;;3.03;1.67;;;;;;;;;;4948776;28;20027;-71
2022/05/20 08:35:26;;;;;;;2.97;1.73;;;;;;;;;;4947083;28;20519;-71
2022/05/20 08:37:52;;;;;;;6.63;1.90;;;;;;;;;;4943346;28;20138;-70
2022/05/20 08:40:21;;;;;;;2.80;1.60;;;;;;;;;;4946373;28;20114;-70
2022/05/20 08:42:49;;;;;;;2.85;1.77;;;;;;;;;;4944073;28;20037;-70
2022/05/20 08:45:18;;;;;;;4.50;1.88;;;;;;;;;;4948528;28;20023;-70
2022/05/20 08:47:46;;;;;;;3.00;2.10;;;;;;;;;;4950255;28;20035;-71
2022/05/20 08:50:20;;;;;;;1.80;1.70;;;;;;;;;;4949418;28;20094;-70
2022/05/20 08:52:46;;;;;;;5.63;1.80;;;;;;;;;;4957141;28;20038;-70
2022/05/20 08:55:12;;;;;;;4.72;1.73;;;;;;;;;;4942852;28;20117;-71
2022/05/20 08:57:44;;;;;;;4.00;1.83;;;;;;;;;;4943003;28;20054;-71
2022/05/20 09:00:13;;;;;;;3.55;1.90;;;;;;;;;;4949237;28;20034;-69
2022/05/20 09:02:38;;;;;;;4.63;1.88;;;;;;;;;;4952378;28;20039;-70
2022/05/20 09:05:28;;;;;;;4.65;2.53;;;;;;;;;;4942208;28;20093;-69
2022/05/20 09:07:57;;;;;;;3.85;1.73;;;;;;;;;;4942814;28;20070;-69
2022/05/20 09:10:43;;;;;;;4.63;1.77;;;;;;;;;;4943202;28;20050;-69
2022/05/20 09:13:12;;;;;;;2.03;1.80;;;;;;;;;;4942787;28;20047;-69
2022/05/20 09:15:44;;;;;;;5.85;2.22;;;;;;;;;;4945236;28;20063;-69
2022/05/20 09:18:39;;;;;;;3.80;1.90;;;;;;;;;;4949792;28;20066;-69
2022/05/20 09:21:05;;;;;;;6.18;1.80;;;;;;;;;;4942253;28;20051;-69
2022/05/20 09:23:31;;;;;;;2.05;1.85;;;;;;;;;;4943128;28;20039;-70
2022/05/20 09:26:09;;;;;;;1.85;1.67;;;;;;;;;;4944278;28;20047;-70
2022/05/20 09:28:39;;;;;;;3.65;2.00;;;;;;;;;;4943711;28;20031;-70
2022/05/20 09:31:13;;;;;;;1.80;1.70;;;;;;;;;;4946877;28;20496;-69
2022/05/20 09:33:39;;;;;;;3.88;1.90;;;;;;;;;;4946844;28;20050;-69
2022/05/20 09:36:05;;;;;;;2.92;1.75;;;;;;;;;;4948669;28;20078;-69
2022/05/20 09:38:40;;;;;;;5.50;1.88;;;;;;;;;;4946737;28;20043;-70
2022/05/20 09:41:13;;;;;;;5.20;2.15;;;;;;;;;;4946967;28;20043;-69
2022/05/20 09:43:57;;;;;;;2.13;1.92;;;;;;;;;;4929230;28;20145;-69
2022/05/20 09:46:40;;;;;;;2.83;2.10;;;;;;;;;;4951699;28;20035;-69
2022/05/20 09:49:15;;;;;;;3.60;1.83;;;;;;;;;;4929042;28;20050;-69
2022/05/20 09:51:51;;;;;;;2.63;2.33;;;;;;;;;;4953865;28;20505;-69
2022/05/20 09:54:28;;;;;;;3.75;2.45;;;;;;;;;;4952453;28;21054;-70
2022/05/20 09:57:13;;;;;;;3.65;1.95;;;;;;;;;;4948996;28;20464;-69
2022/05/20 09:59:48;;;;;;;5.15;1.80;;;;;;;;;;4949689;28;20027;-69
2022/05/20 10:02:28;;;;;;;5.38;2.08;;;;;;;;;;4950955;28;20043;-69
2022/05/20 10:05:10;;;;;;;4.45;2.22;;;;;;;;;;4945839;28;20099;-69
2022/05/20 10:07:51;;;;;;;3.35;1.80;;;;;;;;;;4953585;28;20050;-69
2022/05/20 10:10:45;;;;;;;4.05;2.13;;;;;;;;;;4960944;28;20038;-70
2022/05/20 10:13:25;;;;;;;3.90;2.22;;;;;;;;;;4948532;28;20038;-70
2022/05/20 10:16:11;;;;;;;3.40;2.27;;;;;;;;;;4950857;28;20054;-69
2022/05/20 10:18:59;;;;;;;3.47;2.08;;;;;;;;;;4945513;28;20282;-69
2022/05/20 10:21:37;;;;;;;2.70;2.13;;;;;;;;;;4945182;28;20047;-69
2022/05/20 10:24:27;;;;;;;2.88;2.10;;;;;;;;;;4947597;28;20043;-69
2022/05/20 10:27:01;;;;;;;5.07;1.90;;;;;;;;;;4946844;28;20039;-69
2022/05/20 10:32:36;;;;;;;4.57;2.13;;;;;;;;;;4955887;28;20043;-70
2022/05/20 10:35:09;;;;;;;3.20;1.83;;;;;;;;;;4948142;28;20931;-69
2022/05/20 10:37:47;;;;;;;5.47;2.13;;;;;;;;;;4945519;28;20159;-70
2022/05/20 10:40:34;;;;;;;3.47;2.30;;;;;;;;;;4944544;28;20092;-70
2022/05/20 10:43:21;;;;;;;5.75;2.03;;;;;;;;;;4951179;28;20480;-70
2022/05/20 10:49:15;;;;;;;4.50;1.92;;;;;;;;;;4948979;28;20580;-69
2022/05/20 10:52:16;;;;;;;2.80;2.10;;;;;;;;;;4913428;28;20061;-68
2022/05/20 10:55:05;;;;;;;4.53;2.10;;;;;;;;;;4955779;28;20047;-69
2022/05/20 10:57:52;;;;;;;5.88;2.10;;;;;;;;;;4949289;28;20091;-69
2022/05/20 11:00:20;;;;;;;2.30;2.00;;;;;;;;;;4946089;28;20042;-68
2022/05/20 11:03:19;;;;;;;3.50;2.00;;;;;;;;;;4951381;28;20035;-68
2022/05/20 11:06:21;;;;;;;4.75;2.10;;;;;;;;;;4951536;28;20043;-68
2022/05/20 11:09:07;;;;;;;4.22;2.03;;;;;;;;;;4949211;28;20039;-68
2022/05/20 11:11:38;;;;;;;4.90;2.20;;;;;;;;;;4945126;28;20055;-69
2022/05/20 11:14:06;;;;;;;4.70;2.08;;;;;;;;;;4928243;28;20035;-69
2022/05/20 11:16:47;;;;;;;3.90;2.05;;;;;;;;;;4957959;28;20067;-70
2022/05/20 11:19:44;;;;;;;3.05;1.80;;;;;;;;;;4944479;28;20046;-70
2022/05/20 11:22:28;;;;;;;7.22;1.98;;;;;;;;;;4948783;28;20169;-68
2022/05/20 11:24:56;;;;;;;5.13;1.95;;;;;;;;;;4950305;28;20031;-68
2022/05/20 11:27:49;;;;;;;5.35;2.20;;;;;;;;;;4961134;28;20038;-69
2022/05/20 11:30:23;;;;;;;2.70;2.30;;;;;;;;;;4945258;28;20074;-70
2022/05/20 11:33:14;;;;;;;2.95;1.75;;;;;;;;;;4946236;28;20048;-69
2022/05/20 11:36:15;;;;;;;3.70;1.88;;;;;;;;;;4944981;28;20489;-70
2022/05/20 11:38:53;;;;;;;;;;;;;;;;;;4952135;28;20035;-70
2022/05/20 11:41:42;;;;;;;7.13;2.10;;;;;;;;;;4948030;28;19918;-70
2022/05/20 11:44:46;;;;;;;5.80;2.10;;;;;;;;;;4943793;28;20039;-69
2022/05/20 11:47:17;;;;;;;6.10;2.10;;;;;;;;;;4947182;28;20042;-70
2022/05/20 11:50:01;;;;;;;9.77;2.05;;;;;;;;;;4944642;28;20126;-69
2022/05/20 11:52:37;;;;;;;3.03;2.20;;;;;;;;;;4950531;28;20038;-69
2022/05/20 11:55:05;;;;;;;6.40;2.30;;;;;;;;;;4942368;28;20031;-67
2022/05/20 11:57:38;;;;;;;3.50;2.05;;;;;;;;;;4944512;28;20480;-67
2022/05/20 12:00:13;;;;;;;5.03;2.10;;;;;;;;;;4942629;28;20071;-67
2022/05/20 12:02:45;;;;;;;4.43;1.77;;;;;;;;;;4959984;28;20101;-67
2022/05/20 12:05:16;;;;;;;3.25;2.00;;;;;;;;;;4962283;28;20049;-67
2022/05/20 12:07:42;;;;;;;8.73;2.20;;;;;;;;;;4952751;28;20056;-66
2022/05/20 12:10:37;;;;;;;2.65;1.95;;;;;;;;;;4945829;28;20050;-68
2022/05/20 12:13:09;;;;;;;7.70;2.30;;;;;;;;;;4941608;28;20043;-68
2022/05/20 12:15:41;;;;;;;9.68;2.30;;;;;;;;;;4945544;28;20046;-68
2022/05/20 12:24:42;;;;;;;6.70;2.22;;;;;;;;;;4941953;28;20091;-68
2022/05/20 12:27:24;;;;;;;4.50;1.90;;;;;;;;;;4942626;28;20117;-67
2022/05/20 12:30:27;;;;;;;3.50;2.10;;;;;;;;;;4943508;28;20046;-68
2022/05/20 12:32:53;;;;;;;5.35;1.98;;;;;;;;;;4945354;28;20047;-68
2022/05/20 12:35:30;;;;;;;4.90;2.17;;;;;;;;;;4955944;28;20073;-68
2022/05/20 12:38:24;;;;;;;6.45;2.55;;;;;;;;;;4944084;28;20076;-68
2022/05/20 12:40:57;;;;;;;5.60;1.95;;;;;;;;;;4938431;28;20051;-67
2022/05/20 12:43:43;;;;;;;6.13;2.20;;;;;;;;;;4959993;28;20470;-68
2022/05/20 12:46:29;;;;;;;5.43;1.80;;;;;;;;;;4951500;28;20074;-67
2022/05/20 12:48:55;;;;;;;2.92;2.13;;;;;;;;;;4942223;28;20481;-68
2022/05/20 12:51:21;;;;;;;6.07;2.22;;;;;;;;;;4943476;28;20043;-68
2022/05/20 12:53:47;;;;;;;4.00;1.77;;;;;;;;;;4946512;28;20034;-69
2022/05/20 12:56:28;;;;;;;5.82;2.10;;;;;;;;;;4950928;28;20511;-68
2022/05/20 12:59:15;;;;;;;2.60;1.98;;;;;;;;;;4924931;28;20077;-68
2022/05/20 13:01:44;;;;;;;5.85;2.03;;;;;;;;;;4947194;28;20030;-69
2022/05/20 13:04:14;;;;;;;3.05;1.80;;;;;;;;;;4945821;28;20042;-69
2022/05/20 13:06:44;;;;;;;2.28;1.98;;;;;;;;;;4950756;28;20381;-68
2022/05/20 13:09:11;;;;;;;8.70;2.20;;;;;;;;;;4942181;28;20035;-68
2022/05/20 13:11:45;;;;;;;3.50;1.77;;;;;;;;;;4943243;28;20042;-68
2022/05/20 13:14:13;;;;;;;6.13;2.10;;;;;;;;;;4940661;28;20082;-68
2022/05/20 13:16:40;;;;;;;6.72;2.10;;;;;;;;;;4948836;28;20050;-68
2022/05/20 13:19:14;;;;;;;2.60;1.67;;;;;;;;;;4942710;28;20477;-68
2022/05/20 13:21:44;;;;;;;3.80;1.98;;;;;;;;;;4943943;28;20077;-67
2022/05/20 13:24:15;;;;;;;4.63;2.03;;;;;;;;;;4949371;28;20129;-68
2022/05/20 13:26:42;;;;;;;5.75;2.33;;;;;;;;;;4960177;28;20042;-68
2022/05/20 13:29:15;;;;;;;11.00;2.13;;;;;;;;;;4945627;28;20094;-68
2022/05/20 13:31:41;;;;;;;6.78;2.03;;;;;;;;;;4948108;28;20088;-68
2022/05/20 13:34:09;;;;;;;5.35;2.00;;;;;;;;;;4950962;28;20774;-68
2022/05/20 13:36:41;;;;;;;7.63;2.40;;;;;;;;;;4941679;28;20118;-68
2022/05/20 13:39:07;;;;;;;6.88;2.22;;;;;;;;;;4945970;28;20038;-68
2022/05/20 13:41:33;;;;;;;7.72;2.47;;;;;;;;;;4953474;28;20057;-68
2022/05/20 13:44:04;;;;;;;5.40;2.00;;;;;;;;;;4953994;28;20089;-68
2022/05/20 13:49:18;;;;;;;4.97;2.25;;;;;;;;;;4952810;28;19922;-68
2022/05/20 13:52:06;;;;;;;5.97;2.00;;;;;;;;;;4942664;28;20050;-67
2022/05/20 13:54:35;;;;;;;3.75;2.35;;;;;;;;;;4954107;28;20474;-68
2022/05/20 13:57:03;;;;;;;7.10;1.90;;;;;;;;;;4953397;28;20467;-68
2022/05/20 13:59:29;;;;;;;7.40;2.40;;;;;;;;;;4947129;28;20090;-67
2022/05/20 14:02:08;;;;;;;2.92;2.20;;;;;;;;;;4954838;28;20085;-67
2022/05/20 14:04:39;;;;;;;12.23;2.15;;;;;;;;;;4959865;28;20049;-68
2022/05/20 14:07:08;;;;;;;;;;;;;;;;;;4961284;28;20035;-68
2022/05/20 14:09:38;;;;;;;6.03;2.13;;;;;;;;;;4958273;28;20440;-68
2022/05/20 14:12:03;;;;;;;5.07;2.07;;;;;;;;;;4949509;28;20082;-68
2022/05/20 14:14:32;;;;;;;5.40;2.58;;;;;;;;;;4941656;28;20051;-68
2022/05/20 14:17:01;;;;;;;6.60;2.40;;;;;;;;;;4947013;28;20039;-67
2022/05/20 14:19:42;;;;;;;6.88;2.10;;;;;;;;;;4945701;28;20035;-68
2022/05/20 14:22:11;;;;;;;9.15;2.15;;;;;;;;;;4948900;28;20049;-68
2022/05/20 14:24:52;;;;;;;3.70;2.10;;;;;;;;;;4945270;28;20059;-69
2022/05/20 14:27:39;;;;;;;4.25;2.00;;;;;;;;;;4946300;28;20468;-68
2022/05/20 14:30:20;;;;;;;4.05;2.20;;;;;;;;;;4945693;28;20039;-68
2022/05/20 14:32:52;;;;;;;5.18;2.10;;;;;;;;;;4959617;28;20146;-68
2022/05/20 14:35:25;;;;;;;4.68;2.13;;;;;;;;;;4952181;28;20106;-68
2022/05/20 14:37:52;;;;;;;6.05;1.92;;;;;;;;;;4947365;28;20097;-68
2022/05/20 14:40:18;;;;;;;5.53;2.30;;;;;;;;;;4945172;28;20039;-68
2022/05/20 14:42:56;;;;;;;5.63;2.13;;;;;;;;;;4948898;28;20472;-69
2022/05/20 14:45:32;;;;;;;3.70;1.80;;;;;;;;;;4945964;28;20481;-68
2022/05/20 14:48:06;;;;;;;8.50;2.20;;;;;;;;;;4945553;28;20477;-68
2022/05/20 14:50:32;;;;;;;7.07;1.90;;;;;;;;;;4944813;28;20079;-69
2022/05/20 14:53:25;;;;;;;6.00;2.20;;;;;;;;;;4952619;28;20126;-68
2022/05/20 14:55:54;;;;;;;6.65;2.15;;;;;;;;;;4946182;28;20134;-68
2022/05/20 14:58:25;;;;;;;4.90;2.33;;;;;;;;;;4950913;28;20110;-68
2022/05/20 15:00:50;;;;;;;4.72;1.98;;;;;;;;;;4955648;28;20473;-69
2022/05/20 15:03:16;;;;;;;5.63;2.00;;;;;;;;;;4945234;28;20047;-68
2022/05/20 15:05:42;;;;;;;5.13;1.98;;;;;;;;;;4944492;28;20054;-69
2022/05/20 15:08:12;;;;;;;4.20;2.20;;;;;;;;;;4944487;28;20126;-69
2022/05/20 15:10:39;;;;;;;6.25;2.20;;;;;;;;;;4944867;28;20527;-69
2022/05/20 15:13:04;;;;;;;11.50;2.50;;;;;;;;;;4948849;28;20042;-68
2022/05/20 15:15:31;;;;;;;8.30;2.35;;;;;;;;;;4946928;28;20050;-68
2022/05/20 15:18:04;;;;;;;5.78;2.00;;;;;;;;;;4942675;28;20043;-68
2022/05/20 15:20:33;;;;;;;4.82;1.83;;;;;;;;;;4948836;28;20031;-69
2022/05/20 15:22:59;;;;;;;8.02;2.50;;;;;;;;;;4945426;28;20070;-68
2022/05/20 15:25:26;;;;;;;4.82;2.33;;;;;;;;;;4954134;28;20451;-68
2022/05/20 15:27:52;;;;;;;5.60;2.38;;;;;;;;;;4951009;28;20066;-68
2022/05/20 15:30:17;;;;;;;6.80;2.90;;;;;;;;;;4959456;28;20070;-68
2022/05/20 15:35:27;;;;;;;4.68;2.30;;;;;;;;;;4959738;28;20093;-68
2022/05/20 15:37:53;;;;;;;7.20;2.55;;;;;;;;;;4931262;28;20051;-68
2022/05/20 15:40:18;;;;;;;4.88;2.47;;;;;;;;;;4963684;28;20030;-69
2022/05/20 15:42:43;;;;;;;6.85;2.42;;;;;;;;;;4955236;28;20507;-68
2022/05/20 15:45:12;;;;;;;4.30;2.13;;;;;;;;;;4948155;28;20499;-68
2022/05/20 15:47:37;;;;;;;6.85;2.30;;;;;;;;;;4944299;28;20070;-68